Kingston, Ohio
Current Conditions -  °F | °C
As of 9:14 AM on Thursday 23 Oct 2014 (Local Time) from KRZT Reporting Station
Clear Clear  
Wind Chill: 40°   Ceiling: Unl
Heat Index: 43°   Visibility: 7mi
Dew Point: 41°   Wind: 5mph
Humidity: 93%   Direction: 350°N
Pressure: 30.25"   Gusts: NA
Location:  39.47°N, 82.91°W
Report Text: KRZT 231314Z AUTO 35004KT 7SM CLR 06/05 A3025 RMK AO2
Loading
Personal Weather Stations






























Interactive Weather Map
Tropical Storm Tracking
New forecast layout! Learn more

10-Day Weather Forecast

Advertisements
Track Severe Weather on mobile